Skip Navigation Links Skip Navigation Links

Current Weather

Northolt, United Kingdom

For information only: do not use for flight planning or navigation.
Latest weather
Observation time Wednesday, November 25, 2020 1:50 AM GMT
Local time Wednesday, November 25, 2020 2:18 AM GMT
Flight conditions Marginal Visual Meteorological Conditions
Winds
Wind direction South-Southeast (150°)
Wind speed 7 mph
Visibility 6.2 mi.
Sky condition
Ceiling 1,600 ft. overcast
Cloud layer overcast 1,600 ft.
Temperature 48°F
Dewpoint 46°F
Altimeter 29.83 in.Hg
Derived measurements
Relative humidity 93%
Wind chill 45°F
Density altitude -416 ft.
Remarks
Fully automated report.
METAR EGWU 250150Z AUTO 15006KT 9999 // OVC016/// 09/08 Q1010

Settings

Location code

InnerDrive.Weather 4.0.6770.0 Release CLR 4.0.30319.42000
Copyright ©2018 Inner Drive Technology. All rights reserved. Portions Copyright ©1986-2018 David Braverman.

Find weather

Site navigation


Skip Navigation Links

Place info

Page info

PayPal - The safer, easier way to pay online!

Return home.

Copyright ©2020 Inner Drive Technology. Purveyors of fine, hand-crafted computer software. Page printed 2020-11-25T02:18:12 UTC.